createdAt,value
2023-04-25T00:32:29.509Z,99847
2023-04-25T00:38:47.061Z,99838
2023-04-25T00:44:59.574Z,99838
2023-04-25T00:57:54.850Z,99835
2023-04-25T01:03:57.149Z,99830
2023-04-25T01:10:05.634Z,99831
2023-04-25T01:29:56.404Z,99845
2023-04-25T01:35:59.497Z,99846
2023-04-25T01:42:04.062Z,99848
2023-04-25T01:47:58.490Z,99849
2023-04-25T01:53:58.821Z,99848
2023-04-25T02:00:05.558Z,99855
2023-04-25T02:06:23.759Z,99859
2023-04-25T02:12:19.532Z,99867
2023-04-25T02:18:39.860Z,99860
2023-04-25T02:24:35.034Z,99868
2023-04-25T02:30:44.588Z,99868
2023-04-25T03:09:07.122Z,99878
2023-04-25T03:15:20.230Z,99879
2023-04-25T03:21:42.826Z,99877
2023-04-25T05:06:35.414Z,99935
2023-04-25T05:12:48.061Z,99938
2023-04-25T05:37:12.316Z,99966
2023-04-25T06:25:00.250Z,100003
2023-04-25T06:49:45.948Z,100019
2023-04-25T06:55:56.995Z,100023
2023-04-25T07:02:08.488Z,100025
2023-04-25T07:08:16.964Z,100031
2023-04-25T07:14:13.565Z,100030
2023-04-25T07:32:49.563Z,100033
2023-04-25T12:09:52.266Z,100287
2023-04-25T15:29:50.358Z,100340
2023-04-25T15:35:43.162Z,100343
2023-04-25T15:42:07.045Z,100352
2023-04-25T15:54:01.985Z,100352
2023-04-25T16:12:04.477Z,100376
2023-04-25T16:17:59.155Z,100381
2023-04-25T16:23:54.912Z,100376
2023-04-25T16:29:47.637Z,100373
2023-04-25T16:35:45.747Z,100375
2023-04-25T16:42:04.797Z,100370
2023-04-25T16:47:59.780Z,100376
2023-04-25T16:53:57.664Z,100370
2023-04-25T16:59:57.491Z,100364
2023-04-25T17:06:03.626Z,100364
2023-04-25T17:12:01.969Z,100374
2023-04-25T17:18:01.729Z,100378
2023-04-25T17:23:55.863Z,100379
2023-04-25T17:29:48.770Z,100394
2023-04-25T17:35:42.934Z,100391
2023-04-25T17:41:53.486Z,100400
2023-04-25T17:48:02.691Z,100413
2023-04-25T17:54:02.792Z,100413
2023-04-25T18:00:05.950Z,100416
2023-04-25T18:05:57.500Z,100425
2023-04-25T18:11:48.781Z,100436
2023-04-25T18:17:41.907Z,100437
2023-04-25T18:23:36.087Z,100446
2023-04-25T18:29:39.179Z,100463
2023-04-25T18:35:32.409Z,100465
2023-04-25T18:42:07.053Z,100465
2023-04-25T18:48:14.846Z,100462
2023-04-25T19:00:41.701Z,100488
2023-04-25T19:06:48.782Z,100493
2023-04-25T19:12:42.111Z,100495
2023-04-25T19:18:43.838Z,100502
2023-04-25T19:24:40.550Z,100514
2023-04-25T19:30:39.672Z,100509
2023-04-25T19:36:36.896Z,100517
2023-04-25T19:42:30.248Z,100519
2023-04-25T19:48:36.646Z,100520
2023-04-25T19:54:32.770Z,100524
2023-04-25T20:00:40.161Z,100528
2023-04-25T20:06:37.694Z,100530
2023-04-25T20:12:42.448Z,100532
2023-04-25T20:18:48.194Z,100543
2023-04-25T20:24:54.625Z,100547
2023-04-25T20:31:06.155Z,100557
2023-04-25T20:43:04.737Z,100566
2023-04-25T20:55:04.349Z,100566
2023-04-25T21:00:58.503Z,100566
2023-04-25T21:07:26.196Z,100571
2023-04-25T21:13:19.939Z,100574
2023-04-25T21:19:17.308Z,100576
2023-04-25T21:25:26.973Z,100585
2023-04-25T21:31:41.068Z,100592
2023-04-25T21:38:04.683Z,100596
2023-04-25T21:44:02.501Z,100593
2023-04-25T21:50:22.316Z,100596
2023-04-25T21:56:54.548Z,100584
2023-04-25T22:28:59.912Z,100622
2023-04-25T22:34:53.107Z,100625
2023-04-25T22:40:56.462Z,100631
2023-04-25T22:47:01.653Z,100635
2023-04-25T22:53:01.076Z,100643
2023-04-25T22:58:59.334Z,100651
2023-04-25T23:05:10.689Z,100652
2023-04-25T23:11:11.986Z,100657
2023-04-25T23:17:08.956Z,100660
2023-04-25T23:23:09.589Z,100657
2023-04-25T23:29:13.322Z,100654
2023-04-25T23:35:08.467Z,100663
2023-04-25T23:41:02.567Z,100672
2023-04-25T23:47:21.852Z,100676
2023-04-25T23:53:18.727Z,100677
2023-04-25T23:59:10.402Z,100687
